• Join FlightAware (Why Join?)
  • Login
  • US Flag 
04:27AM EDT


 

Airport Tracker/Info


-or-


 

Live Flight TrackerFlight Track Log ✈ BJS339 ✈ 10-Jun-2014 ✈ KVRB - KMMU

Flight Track Log - Related Links

Times and Time Zones

All times are in EDT time to prevent confusion due to time zone crossing. See the BJS339 flight status page for this flight to view local times or setup timezone preferences in your user account.

Time Position Orientation Groundspeed Altitude Reporting Facility
EDT Latitude Longitude Course Direction KTS MPH feet Rate Location/Type
08:35AM 27.6622 -80.4400 319° Northwest 183 211 1,100  Level Miami Center
08:36AM 27.7203 -80.4567 346° North 240 276 2,000 1,800 Climbing Miami Center
08:37AM 27.7833 -80.4653 353° North 256 295 4,800 3,120 Climbing Miami Center
08:38AM 27.8253 -80.5422 302° West 277 319 8,400 2,580 Climbing Miami Center
08:39AM 27.8375 -80.6336 279° West 296 341 10,100 2,340 Climbing Miami Center
08:40AM 28.1659 -80.9492 319° Northwest  Level FlightAware Approximate
08:40AM 27.8289 -80.7331 264° West 307 353 13,300  Level Miami Center
08:41AM 27.8192 -80.8369 264° West 341 392 16,200 2,820 Climbing Miami Center
08:42AM 27.8453 -80.9461 285° West 367 422 19,200 2,460 Climbing Miami Center
08:43AM 27.9386 -80.9986 334° Northwest 373 429 21,300 1,980 Climbing Miami Center
08:44AM 28.0367 -81.0531 334° Northwest 391 450 23,300 1,920 Climbing Miami Center
08:46AM 28.2725 -81.1019 350° North 413 475 27,200 1,680 Climbing Miami Center
08:47AM 28.3775 -81.1219 350° North 420 483 28,600 1,380 Climbing Miami Center
08:48AM 28.4950 -81.1447 350° North 426 490 30,100 1,500 Climbing Miami Center
08:49AM 28.6381 -81.1719 351° North 432 497 31,700 1,260 Climbing Miami Center
08:50AM 28.7517 -81.1958 350° North 439 505 32,700 1,020 Climbing Miami Center
08:51AM 28.8750 -81.2192 351° North 444 511 33,800 1,140 Climbing Miami Center
08:52AM 28.9950 -81.2450 349° North 439 505 34,900 1,200 Climbing Jacksonville Center
08:53AM 29.1144 -81.2811 345° North 444 511 36,100 1,080 Climbing Jacksonville Center
08:54AM 29.2297 -81.3269 341° North 444 511 37,100 900 Climbing Jacksonville Center
08:55AM 29.3453 -81.3725 341° North 439 505 37,900 720 Climbing Jacksonville Center
08:56AM 29.4625 -81.4186 341° North 439 505 38,600 540 Climbing Jacksonville Center
08:57AM 29.5778 -81.4550 345° North 434 499 39,000 180 Climbing Jacksonville Center
08:58AM 29.7050 -81.4458 North 434 499 39,000  Level Jacksonville Center
08:59AM 29.8256 -81.3961 20° North 442 509 39,000  Level Jacksonville Center
09:00AM 29.9481 -81.3442 20° North 453 521 39,000  Level Jacksonville Center
09:01AM 30.0728 -81.2892 21° North 461 531 39,000  Level Jacksonville Center
09:02AM 30.1994 -81.2511 15° North 466 536 39,000  Level Jacksonville Center
09:03AM 30.3308 -81.2247 10° North 466 536 39,000  Level Jacksonville Center
09:04AM 30.4619 -81.1936 12° North 471 542 39,000  Level Jacksonville Center
09:05AM 30.5931 -81.1622 12° North 471 542 39,000  Level Jacksonville Center
09:06AM 30.7200 -81.1308 12° North 471 542 39,000  Level Jacksonville Center
09:07AM 30.8467 -81.0947 14° North 471 542 39,000  Level Jacksonville Center
09:08AM 30.9669 -81.0367 22° Northeast 466 536 39,000  Level Jacksonville Center
09:09AM 31.0750 -80.9861 22° Northeast 461 531 39,000  Level Jacksonville Center
09:10AM 31.2094 -80.9153 24° Northeast 471 542 39,000  Level Jacksonville Center
09:11AM 31.3297 -80.8569 23° Northeast 471 542 39,000  Level Jacksonville Center
09:12AM 31.4394 -80.8008 24° Northeast 471 542 39,000  Level Jacksonville Center
09:13AM 31.5533 -80.7397 25° Northeast 459 528 39,000  Level Jacksonville Center
09:14AM 31.6878 -80.6733 23° Northeast 459 528 39,000  Level Jacksonville Center
09:15AM 31.7953 -80.6144 25° Northeast 467 537 39,000  Level Jacksonville Center
09:16AM 31.9278 -80.5475 23° Northeast 467 537 39,000  Level Jacksonville Center
09:17AM 32.0353 -80.4908 24° Northeast 473 544 39,000  Level Jacksonville Center
09:18AM 32.1572 -80.4289 23° Northeast 473 544 39,000  Level Jacksonville Center
09:19AM 32.2792 -80.3642 24° Northeast 473 544 39,000  Level Jacksonville Center
09:20AM 32.3989 -80.3017 24° Northeast 473 544 39,000  Level Jacksonville Center
09:21AM 32.5186 -80.2392 24° Northeast 473 544 39,000  Level Jacksonville Center
09:22AM 32.6383 -80.1739 25° Northeast 473 544 39,000  Level Jacksonville Center
09:23AM 32.7581 -80.1086 25° Northeast 473 544 39,000  Level Jacksonville Center
09:24AM 32.8775 -80.0431 25° Northeast 473 544 39,000  Level Jacksonville Center
09:25AM 32.9992 -79.9750 25° Northeast 473 544 39,000  Level Jacksonville Center
09:26AM 33.1208 -79.9114 24° Northeast 473 544 39,000  Level Jacksonville Center
09:27AM 33.2403 -79.8453 25° Northeast 473 544 39,000  Level Jacksonville Center
09:28AM 33.3597 -79.7792 25° Northeast 473 544 39,000  Level Jacksonville Center
09:29AM 33.4792 -79.7125 25° Northeast 473 544 39,000  Level Jacksonville Center
09:30AM 33.5986 -79.6461 25° Northeast 468 539 39,000  Level Jacksonville Center
09:31AM 33.7197 -79.5767 25° Northeast 473 544 39,000 60 Level Jacksonville Center
09:32AM 33.8392 -79.5097 25° Northeast 473 544 39,200 480 Climbing Jacksonville Center
09:33AM 33.9561 -79.4400 26° Northeast 473 544 40,000 600 Climbing Jacksonville Center
09:35AM 34.1575 -79.3236 26° Northeast 445 512 41,000 300 Climbing Washington Center
09:36AM 34.2742 -79.2586 25° Northeast 450 518 41,000  Level Washington Center
09:37AM 34.3953 -79.1908 25° Northeast 461 531 41,000  Level Washington Center
09:38AM 34.5142 -79.1206 26° Northeast 466 536 41,000  Level Washington Center
09:39AM 34.6350 -79.0525 25° Northeast 466 536 41,000  Level Washington Center
09:40AM 34.7558 -78.9869 24° Northeast 471 542 41,000  Level Washington Center
09:41AM 34.8786 -78.9214 24° Northeast 471 542 41,000  Level Washington Center
09:42AM 35.0014 -78.8578 23° Northeast 471 542 41,000  Level Washington Center
09:43AM 35.1222 -78.7917 24° Northeast 471 542 41,000  Level Washington Center
09:44AM 35.2450 -78.7253 24° Northeast 471 542 41,000  Level Washington Center
09:45AM 35.3697 -78.6589 23° Northeast 471 542 41,000  Level Washington Center
09:46AM 35.5031 -78.5847 24° Northeast 471 542 41,000  Level Washington Center
09:47AM 35.6364 -78.5158 23° Northeast 478 550 41,000  Level Washington Center
09:48AM 35.7569 -78.4486 24° Northeast 489 563 41,000  Level Washington Center
09:49AM 35.8775 -78.3811 24° Northeast 484 557 41,000  Level Washington Center
09:50AM 36.0000 -78.3136 24° Northeast 484 557 41,000  Level Washington Center
09:51AM 36.1247 -78.2433 24° Northeast 484 557 41,000  Level Washington Center
09:52AM 36.2450 -78.1753 25° Northeast 479 551 41,000  Level Washington Center
09:53AM 36.3675 -78.1094 23° Northeast 479 551 41,000  Level Washington Center
09:54AM 36.4836 -78.0411 25° Northeast 472 543 41,000  Level Washington Center
09:55AM 36.6081 -77.9697 25° Northeast 473 544 41,000  Level Washington Center
09:56AM 36.7283 -77.9008 25° Northeast 473 544 41,000  Level Washington Center
09:57AM 36.8508 -77.8319 24° Northeast 473 544 41,000  Level Washington Center
09:58AM 36.9750 -77.7628 24° Northeast 473 544 41,000  Level Washington Center
09:59AM 37.0953 -77.6931 25° Northeast 473 544 41,000  Level Washington Center
10:00AM 37.2175 -77.6236 24° Northeast 473 544 41,000  Level Washington Center
10:01AM 37.3417 -77.5536 24° Northeast 473 544 41,000  Level Washington Center
10:02AM 37.4658 -77.4808 25° Northeast 473 544 41,000  Level Washington Center
10:03AM 37.5900 -77.4106 24° Northeast 478 550 41,000  Level Washington Center
10:04AM 37.7122 -77.3375 25° Northeast 478 550 41,000  Level Washington Center
10:05AM 37.8300 -77.2586 28° Northeast 478 550 41,000  Level Washington Center
10:06AM 37.9458 -77.1744 30° Northeast 478 550 41,000  Level Washington Center
10:07AM 38.0639 -77.0897 29° Northeast 478 550 41,000 -180 Level Washington Center
10:08AM 38.1836 -77.0103 28° Northeast 478 550 40,700 -1,440 Descending Washington Center
10:09AM 38.2933 -76.9064 37° Northeast 478 550 38,200 -2,460 Descending Washington Center
10:10AM 38.3839 -76.8156 38° Northeast 478 550 35,900 -2,940 Descending Washington Center
10:11AM 38.4978 -76.6900 41° Northeast 479 551 32,400 -3,120 Descending Washington Center
10:12AM 38.6008 -76.5825 39° Northeast 479 551 29,600 -2,880 Descending Washington Center
10:13AM 38.7058 -76.4747 39° Northeast 479 551 26,700 -1,800 Descending Washington Center
10:14AM 38.8211 -76.4017 26° Northeast 461 531 26,000 -360 Descending Washington Center
10:15AM 38.9403 -76.3417 21° North 456 525 26,000 -360 Level Washington Center
10:16AM 39.0636 -76.2786 22° Northeast 461 531 25,300 -1,020 Descending Washington Center
10:17AM 39.1722 -76.2019 29° Northeast 456 525 24,000 -660 Descending Washington Center
10:18AM 39.2625 -76.1036 40° Northeast 449 517 24,000 -1,020 Level Washington Center
10:19AM 39.4333 -75.9500 35° Northeast 452 520 21,500 -1,860 Descending Philadelphia TRACON
10:20AM 39.5333 -75.8500 38° Northeast 414 476 19,300 -2,280 Descending Philadelphia TRACON
10:21AM 39.6167 -75.7667 38° Northeast 419 482 17,000 -2,220 Descending Philadelphia TRACON
10:22AM 39.7000 -75.6833 38° Northeast 388 447 14,900 -2,040 Descending Philadelphia TRACON
10:23AM 39.8000 -75.6000 33° Northeast 372 428 13,000 -960 Descending Philadelphia TRACON
10:25AM 39.8833 -75.5167 37° Northeast 374 430 13,000  Level Philadelphia TRACON
10:25AM 39.9667 -75.4500 32° Northeast 363 418 13,000  Level Philadelphia TRACON
10:27AM 40.0500 -75.3667 37° Northeast 382 440 13,000  Level Philadelphia TRACON
10:28AM 40.1333 -75.2833 37° Northeast 373 429 13,000 -660 Level Philadelphia TRACON
10:28AM 40.2000 -75.2167 37° Northeast 359 413 11,900 -1,560 Descending Philadelphia TRACON
10:30AM 40.3333 -75.0833 37° Northeast 303 349 8,800 -1,620 Descending New York TRACON
10:31AM 40.4000 -75.0000 44° Northeast 292 336 7,100 -1,320 Descending New York TRACON
10:32AM 40.4500 -74.9333 45° Northeast 295 339 6,200 -1,320 Descending New York TRACON
10:33AM 40.5000 -74.8500 52° Northeast 277 319 4,700 -1,140 Descending New York TRACON
10:34AM 40.5500 -74.7833 45° Northeast 273 314 4,000 -360 Descending New York TRACON
10:35AM 40.6167 -74.7167 37° Northeast 275 316 4,000  Level New York TRACON
10:36AM 40.6667 -74.6500 45° Northeast 276 318 4,000 -180 Level New York TRACON
10:37AM 40.7333 -74.6000 30° Northeast 278 320 3,700 -540 Descending New York TRACON
10:38AM 40.7833 -74.5500 37° Northeast 269 310 3,000 -420 Descending New York TRACON
10:39AM 40.8333 -74.4833 45° Northeast 269 310 3,000 -60 Level New York TRACON
10:40AM 40.9000 -74.4333 30° Northeast 267 307 2,900 -540 Descending New York TRACON
10:41AM 40.9500 -74.3833 37° Northeast 232 267 2,000 -480 Descending New York TRACON
10:42AM 41.0000 -74.3167 45° Northeast 220 253 2,000  Level New York TRACON
10:43AM 40.9667 -74.2667 131° Southeast 230 265 2,000  Level New York TRACON
10:44AM 40.9167 -74.3000 207° Southwest 194 223 2,000 -60 Level New York TRACON
10:45AM 40.8833 -74.3333 217° Southwest 171 197 1,900 -480 Descending New York TRACON
10:46AM 40.8500 -74.3667 217° Southwest 135 155 1,100 -480 Descending New York TRACON
10:47AM 40.8167 -74.4000 217° Southwest 134 154 1,000 -120 Descending New York TRACON